Time;durP1;ratioP1;P1;durP2;ratioP2;P2;SDS_P1;SDS_P2;PMS_P1;PMS_P2;Temp;Humidity;BMP_temperature;BMP_pressure;BME280_temperature;BME280_humidity;BME280_pressure;Samples;Min_cycle;Max_cycle;Signal;HPM_P1;HPM_P2
2023/12/05 00:00:42;;;;;;;2.00;1.20;;;1.20;99.90;;;;;;5020407;28;20041;-80
2023/12/05 00:03:08;;;;;;;2.75;2.10;;;1.20;99.90;;;;;;5036293;28;20543;-77
2023/12/05 00:05:34;;;;;;;4.32;2.75;;;1.20;99.90;;;;;;5015261;28;20124;-78
2023/12/05 00:07:59;;;;;;;3.10;2.13;;;1.20;99.90;;;;;;5026824;28;20084;-78
2023/12/05 00:10:25;;;;;;;2.65;1.80;;;1.20;99.90;;;;;;5025273;28;20041;-80
2023/12/05 00:12:51;;;;;;;2.75;1.88;;;1.20;99.90;;;;;;5028429;28;20085;-79
2023/12/05 00:15:16;;;;;;;2.15;1.38;;;1.20;99.90;;;;;;5044966;28;20112;-79
2023/12/05 00:17:42;;;;;;;3.00;1.75;;;1.20;99.90;;;;;;5030178;28;20029;-80
2023/12/05 00:20:08;;;;;;;5.57;2.60;;;1.20;99.90;;;;;;5017355;28;20040;-80
2023/12/05 00:22:36;;;;;;;3.35;2.00;;;1.20;99.90;;;;;;5026446;28;20041;-78
2023/12/05 00:25:02;;;;;;;2.00;1.80;;;1.10;99.90;;;;;;5029048;28;20041;-79
2023/12/05 00:27:28;;;;;;;3.30;2.53;;;1.20;99.90;;;;;;5024375;28;20041;-79
2023/12/05 00:29:54;;;;;;;2.13;1.98;;;1.10;99.90;;;;;;5024042;28;20066;-81
2023/12/05 00:32:20;;;;;;;2.72;2.20;;;1.20;99.90;;;;;;5024857;28;20310;-80
2023/12/05 00:34:46;;;;;;;1.58;0.98;;;1.20;99.90;;;;;;5023492;28;20040;-78
2023/12/05 00:37:11;;;;;;;2.70;2.05;;;1.10;99.90;;;;;;5024045;28;20033;-78
2023/12/05 00:39:37;;;;;;;1.48;1.33;;;1.20;99.90;;;;;;5030688;28;20450;-78
2023/12/05 00:42:03;;;;;;;1.83;0.88;;;1.10;99.90;;;;;;5025587;28;20064;-78
2023/12/05 00:44:29;;;;;;;2.47;1.88;;;1.10;99.90;;;;;;5031116;28;20405;-78
2023/12/05 00:46:55;;;;;;;3.28;2.60;;;1.10;99.90;;;;;;5046361;28;20033;-79
2023/12/05 00:49:20;;;;;;;4.20;2.30;;;1.10;99.90;;;;;;5040070;28;20203;-77
2023/12/05 00:51:46;;;;;;;2.20;1.90;;;1.10;99.90;;;;;;5040100;28;20540;-78
2023/12/05 00:54:12;;;;;;;3.35;2.03;;;1.10;99.90;;;;;;5026234;28;20030;-78
2023/12/05 00:56:37;;;;;;;3.58;2.03;;;1.10;99.90;;;;;;5022827;28;20045;-78
2023/12/05 00:59:03;;;;;;;3.00;1.95;;;1.10;99.90;;;;;;5029978;28;20158;-77
2023/12/05 01:01:29;;;;;;;2.97;2.38;;;1.10;99.90;;;;;;5041157;28;20124;-77
2023/12/05 01:03:56;;;;;;;2.97;2.67;;;1.10;99.90;;;;;;5025912;28;20397;-78
2023/12/05 01:06:23;;;;;;;2.47;1.92;;;1.10;99.90;;;;;;5027970;28;20056;-77
2023/12/05 01:08:49;;;;;;;3.05;2.38;;;1.10;99.90;;;;;;5043056;28;20074;-76
2023/12/05 01:11:16;;;;;;;1.27;0.95;;;1.10;99.90;;;;;;5023926;28;20045;-76
2023/12/05 01:13:43;;;;;;;2.67;1.67;;;1.10;99.90;;;;;;5026005;28;20048;-76
2023/12/05 01:16:09;;;;;;;4.03;2.08;;;1.10;99.90;;;;;;5030280;28;20037;-75
2023/12/05 01:18:36;;;;;;;3.38;1.20;;;1.10;99.90;;;;;;5029891;28;20033;-75
2023/12/05 01:21:02;;;;;;;3.20;1.88;;;1.10;99.90;;;;;;5026934;28;20041;-74
2023/12/05 01:23:28;;;;;;;3.47;1.58;;;1.00;99.90;;;;;;5020777;28;20037;-75
2023/12/05 01:25:53;;;;;;;2.17;1.98;;;1.00;99.90;;;;;;5023295;28;20129;-74
2023/12/05 01:28:19;;;;;;;2.10;1.83;;;1.10;99.90;;;;;;5025124;28;20179;-75
2023/12/05 01:30:45;;;;;;;3.67;2.67;;;1.00;99.90;;;;;;5021000;28;20513;-75
2023/12/05 01:33:10;;;;;;;1.58;1.05;;;1.00;99.90;;;;;;5025391;28;20033;-73
2023/12/05 01:35:36;;;;;;;5.95;1.42;;;1.00;99.90;;;;;;5021443;28;20511;-74
2023/12/05 01:38:02;;;;;;;1.35;1.25;;;1.00;99.90;;;;;;5044219;28;20034;-74
2023/12/05 01:40:27;;;;;;;5.55;2.90;;;1.00;99.90;;;;;;5050609;28;20036;-75
2023/12/05 01:42:53;;;;;;;2.45;2.25;;;1.00;99.90;;;;;;5025305;28;20441;-74
2023/12/05 01:45:19;;;;;;;2.45;1.63;;;1.00;99.90;;;;;;5043947;28;20390;-74
2023/12/05 01:47:45;;;;;;;1.65;1.27;;;1.00;99.90;;;;;;5023098;28;20071;-74
2023/12/05 01:50:21;;;;;;;3.15;2.15;;;1.00;99.90;;;;;;5021630;28;20494;-74
2023/12/05 01:52:51;;;;;;;2.45;1.67;;;1.00;99.90;;;;;;5025972;28;20064;-73
2023/12/05 01:55:18;;;;;;;3.38;2.45;;;1.00;99.90;;;;;;5027266;28;20033;-73
2023/12/05 01:57:46;;;;;;;7.55;3.33;;;1.00;99.90;;;;;;5014688;28;20550;-74
2023/12/05 02:00:13;;;;;;;2.72;1.95;;;0.90;99.90;;;;;;5029550;28;20528;-74
2023/12/05 02:02:40;;;;;;;4.53;2.13;;;1.00;99.90;;;;;;5023581;28;20036;-74
2023/12/05 02:05:06;;;;;;;3.08;2.03;;;1.00;99.90;;;;;;5023613;28;20040;-73
2023/12/05 02:07:32;;;;;;;1.50;1.15;;;1.00;99.90;;;;;;5013770;28;20515;-74
2023/12/05 02:09:58;;;;;;;2.33;1.90;;;0.90;99.90;;;;;;5019523;28;20045;-73
2023/12/05 02:12:24;;;;;;;2.80;2.20;;;1.00;99.90;;;;;;5026931;28;20056;-74
2023/12/05 02:14:50;;;;;;;4.50;3.58;;;1.00;99.90;;;;;;5010688;28;20040;-73
2023/12/05 02:17:34;;;;;;;2.60;1.75;;;1.00;99.90;;;;;;5027611;28;20078;-73
2023/12/05 02:20:35;;;;;;;2.97;2.03;;;1.00;99.90;;;;;;5045314;28;20485;-73
2023/12/05 02:23:01;;;;;;;1.55;1.45;;;1.00;99.90;;;;;;5023826;28;20534;-73
2023/12/05 02:26:18;;;;;;;3.33;2.25;;;0.90;99.90;;;;;;5026434;28;20041;-73
2023/12/05 02:28:44;;;;;;;2.13;1.85;;;1.00;99.90;;;;;;5004626;28;20153;-74
2023/12/05 02:31:09;;;;;;;3.63;2.55;;;1.00;99.90;;;;;;5020743;28;20033;-74
2023/12/05 02:33:35;;;;;;;2.35;1.73;;;1.00;99.90;;;;;;5029218;28;20178;-74
2023/12/05 02:36:08;;;;;;;3.63;2.83;;;1.00;99.90;;;;;;5020070;28;20040;-73
2023/12/05 02:38:58;;;;;;;2.35;2.08;;;1.00;99.90;;;;;;5028595;28;20474;-74
2023/12/05 02:41:29;;;;;;;2.10;1.50;;;1.00;99.90;;;;;;5019188;28;20064;-74
2023/12/05 02:44:04;;;;;;;4.72;2.45;;;1.00;99.90;;;;;;5029266;28;20349;-74
2023/12/05 02:46:31;;;;;;;4.30;2.95;;;1.00;99.90;;;;;;5027012;28;20563;-73
2023/12/05 02:48:58;;;;;;;4.78;2.50;;;1.00;99.90;;;;;;5027463;28;20393;-74
2023/12/05 02:51:25;;;;;;;3.20;2.28;;;1.00;99.90;;;;;;5020674;28;20145;-74
2023/12/05 02:53:51;;;;;;;4.43;3.10;;;1.00;99.90;;;;;;5014191;28;20034;-74
2023/12/05 02:56:18;;;;;;;2.83;1.75;;;1.00;99.90;;;;;;5020169;28;20037;-74
2023/12/05 02:58:43;;;;;;;3.63;2.60;;;1.00;99.90;;;;;;5041076;28;20034;-74
2023/12/05 03:01:09;;;;;;;3.42;2.30;;;1.00;99.90;;;;;;5015225;28;20045;-74
2023/12/05 03:03:35;;;;;;;3.60;3.20;;;1.00;99.90;;;;;;5023067;28;20132;-74
2023/12/05 03:06:00;;;;;;;3.83;3.10;;;1.00;99.90;;;;;;5025754;28;20044;-73
2023/12/05 03:08:26;;;;;;;4.45;3.13;;;1.00;99.90;;;;;;5017681;28;20154;-74
2023/12/05 03:10:52;;;;;;;3.67;2.83;;;1.00;99.90;;;;;;5022450;28;20480;-74
2023/12/05 03:13:17;;;;;;;2.15;1.63;;;1.00;99.90;;;;;;5027162;28;20048;-74
2023/12/05 03:15:43;;;;;;;3.53;2.28;;;1.00;99.90;;;;;;5017654;28;20044;-74
2023/12/05 03:18:09;;;;;;;2.35;1.83;;;1.00;99.90;;;;;;5021457;28;20041;-74
2023/12/05 03:20:34;;;;;;;3.78;2.95;;;1.00;99.90;;;;;;5025637;28;20047;-74
2023/12/05 03:23:00;;;;;;;2.38;2.05;;;1.00;99.90;;;;;;5025149;28;20055;-75
2023/12/05 03:25:26;;;;;;;1.67;1.58;;;1.10;99.90;;;;;;5043231;28;20096;-75
2023/12/05 03:27:52;;;;;;;4.03;2.85;;;1.00;99.90;;;;;;5023637;28;20041;-76
2023/12/05 03:30:17;;;;;;;2.00;1.55;;;1.10;99.90;;;;;;5019701;28;20043;-76
2023/12/05 03:32:43;;;;;;;4.68;2.15;;;1.10;99.90;;;;;;5022842;28;20564;-73
2023/12/05 03:35:09;;;;;;;2.90;2.42;;;1.00;99.90;;;;;;5027733;28;20037;-75
2023/12/05 03:37:35;;;;;;;2.88;1.80;;;1.10;99.90;;;;;;5026566;28;20038;-75
2023/12/05 03:40:00;;;;;;;3.13;2.80;;;1.00;99.90;;;;;;5025129;28;20119;-74
2023/12/05 03:42:26;;;;;;;3.05;2.47;;;1.10;99.90;;;;;;5027783;28;20037;-76
2023/12/05 03:44:52;;;;;;;2.92;2.35;;;1.10;99.90;;;;;;5015313;28;20118;-76
2023/12/05 03:47:18;;;;;;;2.00;1.80;;;1.10;99.90;;;;;;5038922;28;20389;-76
2023/12/05 03:49:43;;;;;;;3.90;3.22;;;1.10;99.90;;;;;;5020434;28;20143;-75
2023/12/05 03:52:09;;;;;;;4.25;3.30;;;1.10;99.90;;;;;;5027074;28;20049;-76
2023/12/05 03:54:35;;;;;;;3.88;2.55;;;1.10;99.90;;;;;;5026393;28;20452;-76
2023/12/05 03:57:00;;;;;;;3.58;2.45;;;1.10;99.90;;;;;;5023844;28;20096;-76
2023/12/05 03:59:26;;;;;;;2.45;2.22;;;1.10;99.90;;;;;;5023267;28;20489;-76
2023/12/05 04:01:52;;;;;;;3.50;3.17;;;1.10;99.90;;;;;;5008567;28;20038;-77
2023/12/05 04:04:17;;;;;;;3.42;3.05;;;1.00;99.90;;;;;;5019848;28;20527;-77
2023/12/05 04:06:43;;;;;;;5.10;3.17;;;1.10;99.90;;;;;;5026850;28;20404;-78
2023/12/05 04:09:09;;;;;;;4.50;2.30;;;1.10;99.90;;;;;;5021669;28;20049;-77
2023/12/05 04:11:35;;;;;;;2.95;2.13;;;1.10;99.90;;;;;;5022207;28;20490;-76
2023/12/05 04:14:01;;;;;;;1.90;1.63;;;1.10;99.90;;;;;;5024163;28;20038;-77
2023/12/05 04:16:27;;;;;;;4.65;3.70;;;1.10;99.90;;;;;;5023238;28;20218;-76
2023/12/05 04:18:53;;;;;;;4.00;2.38;;;1.10;99.90;;;;;;5030106;28;20042;-78
2023/12/05 04:21:19;;;;;;;3.38;1.92;;;1.10;99.90;;;;;;5022517;28;20835;-78
2023/12/05 04:23:46;;;;;;;3.33;2.97;;;1.10;99.90;;;;;;5023634;28;20126;-78
2023/12/05 04:26:19;;;;;;;3.08;2.60;;;1.10;99.90;;;;;;5028274;28;20046;-77
2023/12/05 04:28:45;;;;;;;5.25;3.72;;;1.10;99.90;;;;;;5016297;28;20076;-78
2023/12/05 04:31:14;;;;;;;2.92;2.28;;;1.10;99.90;;;;;;5012704;28;20505;-77
2023/12/05 04:33:40;;;;;;;4.40;3.03;;;1.00;99.90;;;;;;5017412;28;20037;-78
2023/12/05 04:36:07;;;;;;;3.25;2.65;;;1.10;99.90;;;;;;5027163;28;20045;-77
2023/12/05 04:38:37;;;;;;;4.38;2.53;;;1.10;99.90;;;;;;5007094;28;20430;-79
2023/12/05 04:41:03;;;;;;;5.40;3.30;;;1.10;99.90;;;;;;5025904;28;20038;-78
2023/12/05 04:43:30;;;;;;;3.75;2.70;;;1.10;99.90;;;;;;5008370;28;20053;-78
2023/12/05 04:45:56;;;;;;;4.93;3.13;;;1.10;99.90;;;;;;5024609;28;20044;-78
2023/12/05 04:48:22;;;;;;;6.90;4.93;;;1.10;99.90;;;;;;5023316;28;20388;-76
2023/12/05 04:50:48;;;;;;;4.40;3.10;;;1.10;99.90;;;;;;5017824;28;20049;-77
2023/12/05 04:53:14;;;;;;;5.13;3.85;;;1.10;99.90;;;;;;5026818;28;20140;-76
2023/12/05 04:55:39;;;;;;;5.07;3.95;;;1.10;99.90;;;;;;5020824;28;20041;-77
2023/12/05 04:58:05;;;;;;;5.05;3.42;;;1.10;99.90;;;;;;5026915;28;20044;-76
2023/12/05 05:00:32;;;;;;;4.15;3.10;;;1.10;99.90;;;;;;5002269;28;20030;-76
2023/12/05 05:02:58;;;;;;;6.38;3.25;;;1.10;99.90;;;;;;5020061;28;20042;-76
2023/12/05 05:05:23;;;;;;;5.38;4.07;;;1.10;99.90;;;;;;5015939;28;20046;-76
2023/12/05 05:07:49;;;;;;;3.33;2.55;;;1.20;99.90;;;;;;5021147;28;20055;-76
2023/12/05 05:10:15;;;;;;;5.63;3.40;;;1.10;99.90;;;;;;5021337;28;20042;-73
2023/12/05 05:12:40;;;;;;;1.80;1.20;;;1.10;99.90;;;;;;5017301;28;20049;-75
2023/12/05 05:15:07;;;;;;;4.25;2.47;;;1.10;99.90;;;;;;5025486;28;20076;-75
2023/12/05 05:17:32;;;;;;;4.70;4.20;;;1.10;99.90;;;;;;5020723;28;20072;-75
2023/12/05 05:19:58;;;;;;;4.70;2.95;;;1.10;99.90;;;;;;5005764;28;20056;-75
2023/12/05 05:22:24;;;;;;;5.22;3.42;;;1.10;99.90;;;;;;5017448;28;20053;-75
2023/12/05 05:24:50;;;;;;;3.05;2.60;;;1.10;99.90;;;;;;5020134;28;20096;-75
2023/12/05 05:27:15;;;;;;;4.75;4.10;;;1.20;99.90;;;;;;5019681;28;20056;-74
2023/12/05 05:29:41;;;;;;;4.90;2.90;;;1.10;99.90;;;;;;5028003;28;20095;-74
2023/12/05 05:32:07;;;;;;;4.43;3.53;;;1.10;99.90;;;;;;5013985;28;20498;-74
2023/12/05 05:34:32;;;;;;;4.63;3.67;;;1.10;99.90;;;;;;5020504;28;20034;-74
2023/12/05 05:36:58;;;;;;;9.90;5.40;;;1.10;99.90;;;;;;5019682;28;20635;-74
2023/12/05 05:39:24;;;;;;;4.18;3.08;;;1.10;99.90;;;;;;5021694;28;20112;-74
2023/12/05 05:41:50;;;;;;;2.67;2.03;;;1.10;99.90;;;;;;5014101;28;20045;-74
2023/12/05 05:44:16;;;;;;;10.55;4.95;;;1.10;99.90;;;;;;5020272;28;20045;-75
2023/12/05 05:46:41;;;;;;;6.03;4.35;;;1.10;99.90;;;;;;5008116;28;20418;-74
2023/12/05 05:49:07;;;;;;;6.03;3.47;;;1.10;99.90;;;;;;5019289;28;20096;-75
2023/12/05 05:51:33;;;;;;;6.22;4.10;;;1.10;99.90;;;;;;5015202;28;20068;-74
2023/12/05 05:53:59;;;;;;;13.93;4.70;;;1.10;99.90;;;;;;5017805;28;20069;-74
2023/12/05 05:56:25;;;;;;;3.25;2.88;;;1.10;99.90;;;;;;5019528;28;20037;-73
2023/12/05 05:58:50;;;;;;;6.03;3.63;;;1.10;99.90;;;;;;5008790;28;20183;-74
2023/12/05 06:01:16;;;;;;;4.90;3.28;;;1.10;99.90;;;;;;5018982;28;20076;-74
2023/12/05 06:03:42;;;;;;;4.85;4.38;;;1.10;99.90;;;;;;5023393;28;20107;-74
2023/12/05 06:06:08;;;;;;;7.13;5.13;;;1.10;99.90;;;;;;5021425;28;20080;-74
2023/12/05 06:08:35;;;;;;;7.38;4.70;;;1.10;99.90;;;;;;5020057;28;20038;-72
2023/12/05 06:11:00;;;;;;;5.70;3.45;;;1.10;99.90;;;;;;5022134;28;20450;-73
2023/12/05 06:13:26;;;;;;;2.95;2.67;;;1.10;99.90;;;;;;5019234;28;20048;-73
2023/12/05 06:15:52;;;;;;;4.10;3.13;;;1.10;99.90;;;;;;5020393;28;20041;-73
2023/12/05 06:18:18;;;;;;;5.85;4.68;;;1.20;99.90;;;;;;5018253;28;20400;-73
2023/12/05 06:20:44;;;;;;;6.07;3.78;;;1.20;99.90;;;;;;5021225;28;20117;-73
2023/12/05 06:23:10;;;;;;;8.98;4.90;;;1.20;99.90;;;;;;5021671;28;20055;-72
2023/12/05 06:25:36;;;;;;;4.50;3.05;;;1.10;99.90;;;;;;5020915;28;20524;-73
2023/12/05 06:28:02;;;;;;;5.28;4.03;;;1.20;99.90;;;;;;5028035;28;20053;-72
2023/12/05 06:30:28;;;;;;;6.97;4.90;;;1.10;99.90;;;;;;5021942;28;20045;-73
2023/12/05 06:32:53;;;;;;;5.53;4.20;;;1.20;99.90;;;;;;5018458;28;20041;-73
2023/12/05 06:35:19;;;;;;;5.25;3.45;;;1.20;99.90;;;;;;5018624;28;20056;-72
2023/12/05 06:37:45;;;;;;;5.03;3.90;;;1.10;99.90;;;;;;5016729;28;20048;-73
2023/12/05 06:40:11;;;;;;;7.55;4.75;;;1.20;99.90;;;;;;5019231;28;20060;-72
2023/12/05 06:42:37;;;;;;;5.50;4.07;;;1.10;99.90;;;;;;5019389;28;20042;-73
2023/12/05 06:45:03;;;;;;;4.05;3.47;;;1.20;99.90;;;;;;5019001;28;20060;-72
2023/12/05 06:47:31;;;;;;;4.35;3.22;;;1.10;99.90;;;;;;5011241;28;20048;-73
2023/12/05 06:50:05;;;;;;;6.07;4.97;;;1.20;99.90;;;;;;5022626;28;20414;-73
2023/12/05 06:52:30;;;;;;;6.57;4.60;;;1.20;99.90;;;;;;5024231;28;20116;-73
2023/12/05 06:54:56;;;;;;;5.97;4.53;;;1.10;99.90;;;;;;5024450;28;20091;-73
2023/12/05 06:57:22;;;;;;;5.10;3.42;;;1.20;99.90;;;;;;5035655;28;20033;-73
2023/12/05 06:59:48;;;;;;;5.05;3.97;;;1.10;99.90;;;;;;5022136;28;20041;-73
2023/12/05 07:02:13;;;;;;;5.35;3.75;;;1.10;99.90;;;;;;5012354;28;20045;-73
2023/12/05 07:04:39;;;;;;;5.22;4.70;;;1.10;99.90;;;;;;5038543;28;20045;-73
2023/12/05 07:07:06;;;;;;;6.60;4.43;;;1.10;99.90;;;;;;5025000;28;20385;-73
2023/12/05 07:09:33;;;;;;;6.45;3.92;;;1.10;99.90;;;;;;5019336;28;20115;-73
2023/12/05 07:11:58;;;;;;;7.30;4.85;;;1.10;99.90;;;;;;5022388;28;20078;-73
2023/12/05 07:14:24;;;;;;;4.43;3.28;;;1.10;99.90;;;;;;5030737;28;20064;-73
2023/12/05 07:16:50;;;;;;;6.38;5.32;;;1.10;99.90;;;;;;5025696;28;20037;-73
2023/12/05 07:19:15;;;;;;;6.18;3.92;;;1.10;99.90;;;;;;5034553;28;20052;-73
2023/12/05 07:21:41;;;;;;;5.75;3.67;;;1.10;99.90;;;;;;5025875;28;20179;-72
2023/12/05 07:24:07;;;;;;;5.68;2.85;;;1.10;99.90;;;;;;5009567;28;20049;-73
2023/12/05 07:26:32;;;;;;;4.53;3.53;;;1.10;99.90;;;;;;5022660;28;20043;-73
2023/12/05 07:28:58;;;;;;;7.65;4.93;;;1.10;99.90;;;;;;5013565;28;20052;-73
2023/12/05 07:31:24;;;;;;;4.90;3.85;;;1.10;99.90;;;;;;5041210;28;20077;-73
2023/12/05 07:33:49;;;;;;;4.88;3.00;;;1.10;99.90;;;;;;5010784;28;20406;-72
2023/12/05 07:36:15;;;;;;;8.55;4.30;;;1.10;99.90;;;;;;5020632;28;20037;-73
2023/12/05 07:38:41;;;;;;;5.50;4.32;;;1.10;99.90;;;;;;5026324;28;20547;-71
2023/12/05 07:41:20;;;;;;;5.88;4.32;;;1.10;99.90;;;;;;5041022;28;20052;-72
2023/12/05 07:43:46;;;;;;;8.77;5.57;;;1.10;99.90;;;;;;5022400;28;20041;-72
2023/12/05 07:46:12;;;;;;;4.22;2.92;;;1.10;99.90;;;;;;5020367;28;20056;-72
2023/12/05 07:48:37;;;;;;;6.00;4.28;;;1.20;99.90;;;;;;5028028;28;20045;-71
2023/12/05 07:51:03;;;;;;;5.07;4.07;;;1.20;99.90;;;;;;5022813;28;20054;-72
2023/12/05 07:53:29;;;;;;;6.68;5.05;;;1.20;99.90;;;;;;5020818;28;20457;-72
2023/12/05 07:55:55;;;;;;;6.32;4.57;;;1.20;99.90;;;;;;5026739;28;20045;-72
2023/12/05 07:58:20;;;;;;;4.65;3.80;;;1.20;99.90;;;;;;5026002;28;20116;-73
2023/12/05 08:00:46;;;;;;;4.80;3.67;;;1.20;99.90;;;;;;5023511;28;20546;-72
2023/12/05 08:03:13;;;;;;;5.35;3.53;;;1.20;99.90;;;;;;5022415;28;20083;-72
2023/12/05 08:05:39;;;;;;;5.30;4.00;;;1.20;99.90;;;;;;5025435;28;20087;-72
2023/12/05 08:08:05;;;;;;;5.53;4.82;;;1.20;99.90;;;;;;5027431;28;20029;-72
2023/12/05 08:10:31;;;;;;;5.80;3.60;;;1.20;99.90;;;;;;5023874;28;20041;-72
2023/12/05 08:12:57;;;;;;;3.42;3.13;;;1.20;99.90;;;;;;5020736;28;20033;-72
2023/12/05 08:15:22;;;;;;;5.57;4.05;;;1.20;99.90;;;;;;5022306;28;20562;-72
2023/12/05 08:17:48;;;;;;;4.20;3.20;;;1.20;99.90;;;;;;5037174;28;20542;-72
2023/12/05 08:20:14;;;;;;;3.72;2.45;;;1.20;99.90;;;;;;5024776;28;20045;-73
2023/12/05 08:22:40;;;;;;;3.97;2.85;;;1.20;99.90;;;;;;5022942;28;20055;-72
2023/12/05 08:25:08;;;;;;;5.10;3.58;;;1.20;99.90;;;;;;5029659;28;20652;-73
2023/12/05 08:27:34;;;;;;;4.50;3.55;;;1.20;99.90;;;;;;5020614;28;20115;-72
2023/12/05 08:30:02;;;;;;;5.32;3.70;;;1.20;99.90;;;;;;5024898;28;20378;-73
2023/12/05 08:32:27;;;;;;;3.25;2.67;;;1.20;99.90;;;;;;5040295;28;20049;-72
2023/12/05 08:34:53;;;;;;;5.65;2.70;;;1.20;99.90;;;;;;5028228;28;20555;-72
2023/12/05 08:37:19;;;;;;;6.60;3.95;;;1.20;99.90;;;;;;5023856;28;20080;-72
2023/12/05 08:39:44;;;;;;;5.03;4.45;;;1.20;99.90;;;;;;5021970;28;20029;-72
2023/12/05 08:42:10;;;;;;;4.65;2.90;;;1.20;99.90;;;;;;5023219;28;20040;-72
2023/12/05 08:44:36;;;;;;;9.10;4.18;;;1.20;99.90;;;;;;5030669;28;20044;-73
2023/12/05 08:47:02;;;;;;;4.25;3.63;;;1.20;99.90;;;;;;5022564;28;20041;-72
2023/12/05 08:49:28;;;;;;;5.28;4.32;;;1.20;99.90;;;;;;5021504;28;20102;-72
2023/12/05 08:51:53;;;;;;;6.25;5.03;;;1.20;99.90;;;;;;5017592;28;20053;-72
2023/12/05 08:54:19;;;;;;;4.78;3.25;;;1.20;99.90;;;;;;5026462;28;20464;-72
2023/12/05 08:56:45;;;;;;;6.82;3.50;;;1.20;99.90;;;;;;5023397;28;20071;-72
2023/12/05 08:59:10;;;;;;;5.05;2.97;;;1.20;99.90;;;;;;5025514;28;20029;-72
2023/12/05 09:01:36;;;;;;;4.75;4.03;;;1.30;99.90;;;;;;5005390;28;20541;-72
2023/12/05 09:04:02;;;;;;;8.35;5.60;;;1.30;99.90;;;;;;5020816;28;20037;-72
2023/12/05 09:06:28;;;;;;;3.90;2.53;;;1.30;99.90;;;;;;5036726;28;20063;-71
2023/12/05 09:08:54;;;;;;;10.07;4.05;;;1.30;99.90;;;;;;5021034;28;20029;-71
2023/12/05 09:11:20;;;;;;;5.50;2.85;;;1.30;99.90;;;;;;5027472;28;20516;-71
2023/12/05 09:13:46;;;;;;;4.63;4.13;;;1.30;99.90;;;;;;5040435;28;20048;-71
2023/12/05 09:16:12;;;;;;;4.63;3.20;;;1.30;99.90;;;;;;5024331;28;20095;-71
2023/12/05 09:18:37;;;;;;;5.38;3.53;;;1.30;99.90;;;;;;5021109;28;20404;-71
2023/12/05 09:21:03;;;;;;;8.40;4.57;;;1.30;99.90;;;;;;5043685;28;20124;-71
2023/12/05 09:23:29;;;;;;;8.52;5.40;;;1.30;99.90;;;;;;5026380;28;20037;-71
2023/12/05 09:25:55;;;;;;;4.68;2.15;;;1.30;99.90;;;;;;5041983;28;20044;-71
2023/12/05 09:28:20;;;;;;;6.72;3.58;;;1.30;99.90;;;;;;5021759;28;20473;-71
2023/12/05 09:30:46;;;;;;;6.43;3.90;;;1.30;99.90;;;;;;5026964;28;20202;-71
2023/12/05 09:33:12;;;;;;;4.28;2.58;;;1.30;99.90;;;;;;5023770;28;20551;-71
2023/12/05 09:35:37;;;;;;;5.63;4.05;;;1.40;99.90;;;;;;5024700;28;20037;-71
2023/12/05 09:38:04;;;;;;;5.68;3.33;;;1.30;99.90;;;;;;5020351;28;20107;-71
2023/12/05 09:40:31;;;;;;;4.80;2.85;;;1.30;99.90;;;;;;5025598;28;20246;-71
2023/12/05 09:42:59;;;;;;;5.95;3.47;;;1.30;99.90;;;;;;5025524;28;20070;-70
2023/12/05 09:45:33;;;;;;;5.07;4.15;;;1.40;99.90;;;;;;5020134;28;20052;-70
2023/12/05 09:48:03;;;;;;;4.85;3.38;;;1.40;99.90;;;;;;5019460;28;20390;-70
2023/12/05 09:50:29;;;;;;;4.57;3.35;;;1.40;99.90;;;;;;5020639;28;20370;-70
2023/12/05 09:52:58;;;;;;;5.40;3.83;;;1.40;99.90;;;;;;5022996;28;20052;-70
2023/12/05 09:55:24;;;;;;;4.82;4.22;;;1.40;99.90;;;;;;5025279;28;20119;-70
2023/12/05 09:57:50;;;;;;;5.80;3.85;;;1.40;99.90;;;;;;5020206;28;20175;-70
2023/12/05 10:00:16;;;;;;;5.93;3.03;;;1.40;99.90;;;;;;5020950;28;20132;-69
2023/12/05 10:02:46;;;;;;;7.32;3.80;;;1.40;99.90;;;;;;5023598;28;20057;-69
2023/12/05 10:05:15;;;;;;;5.30;3.28;;;1.40;99.90;;;;;;5027025;28;20187;-69
2023/12/05 10:07:43;;;;;;;4.03;2.67;;;1.40;99.90;;;;;;5024280;28;20064;-69
2023/12/05 10:10:11;;;;;;;3.53;2.72;;;1.40;99.90;;;;;;5020938;28;20508;-69
2023/12/05 10:12:37;;;;;;;6.65;4.13;;;1.40;99.90;;;;;;5028790;28;20116;-69
2023/12/05 10:15:04;;;;;;;6.10;3.78;;;1.40;99.90;;;;;;5024101;28;20164;-70
2023/12/05 10:17:33;;;;;;;3.25;2.55;;;1.40;99.90;;;;;;5039320;28;20120;-70
2023/12/05 10:19:59;;;;;;;5.43;4.15;;;1.40;99.90;;;;;;5020619;28;20116;-70
2023/12/05 10:22:26;;;;;;;4.72;3.85;;;1.40;99.90;;;;;;5038630;28;20080;-70
2023/12/05 10:24:54;;;;;;;5.68;4.40;;;1.40;99.90;;;;;;5020415;28;20045;-70
2023/12/05 10:27:20;;;;;;;4.30;3.00;;;1.40;99.90;;;;;;5027646;28;20045;-70
2023/12/05 10:29:46;;;;;;;6.07;3.35;;;1.40;99.90;;;;;;5018426;28;20516;-69
2023/12/05 10:32:12;;;;;;;5.60;3.50;;;1.40;99.90;;;;;;5020588;28;20033;-69
2023/12/05 10:34:49;;;;;;;6.70;4.05;;;1.40;99.90;;;;;;5021864;28;20566;-70
2023/12/05 10:37:23;;;;;;;5.20;3.38;;;1.40;99.90;;;;;;5039086;28;20041;-70
2023/12/05 10:39:58;;;;;;;5.05;3.72;;;1.50;99.90;;;;;;5021087;28;20110;-70
2023/12/05 10:42:26;;;;;;;3.85;2.50;;;1.40;99.90;;;;;;5021947;28;20046;-68
2023/12/05 10:44:52;;;;;;;4.10;2.58;;;1.40;99.90;;;;;;5020337;28;20164;-69
2023/12/05 10:47:18;;;;;;;4.68;2.83;;;1.40;99.90;;;;;;5035551;28;20110;-69
2023/12/05 10:49:44;;;;;;;12.57;6.00;;;1.40;99.90;;;;;;5025705;28;20038;-69
2023/12/05 10:52:12;;;;;;;1.50;1.40;;;1.50;99.90;;;;;;5020845;28;20053;-69
2023/12/05 10:54:42;;;;;;;7.28;5.30;;;1.50;99.90;;;;;;5022198;28;20068;-69
2023/12/05 10:57:11;;;;;;;2.97;2.35;;;1.50;99.90;;;;;;5018500;28;20044;-68
2023/12/05 10:59:38;;;;;;;4.00;2.72;;;1.50;99.90;;;;;;5041613;28;20489;-68
2023/12/05 11:02:13;;;;;;;1.23;1.05;;;1.50;99.90;;;;;;5043219;28;20041;-68
2023/12/05 11:04:40;;;;;;;7.60;4.10;;;1.60;99.90;;;;;;5037926;28;20068;-68
2023/12/05 11:07:09;;;;;;;6.25;4.13;;;1.60;99.90;;;;;;5038308;28;20041;-67
2023/12/05 11:09:35;;;;;;;5.30;3.67;;;1.60;99.90;;;;;;5042467;28;20134;-67
2023/12/05 11:12:06;;;;;;;4.63;3.00;;;1.60;99.90;;;;;;5024754;28;20126;-67
2023/12/05 11:14:40;;;;;;;5.18;3.53;;;1.60;99.90;;;;;;5039394;28;20458;-67
2023/12/05 11:17:11;;;;;;;5.80;3.90;;;1.60;99.90;;;;;;5021202;28;20138;-67
2023/12/05 11:20:14;;;;;;;5.22;3.95;;;1.60;99.90;;;;;;5024947;28;20056;-66
2023/12/05 11:23:14;;;;;;;6.55;4.25;;;1.60;99.90;;;;;;5034050;28;20132;-66
2023/12/05 11:26:05;;;;;;;6.25;4.10;;;1.50;99.90;;;;;;5041421;28;20503;-67
2023/12/05 11:28:40;;;;;;;6.80;3.95;;;1.50;99.90;;;;;;5043099;28;20045;-67
2023/12/05 11:31:26;;;;;;;6.90;3.33;;;1.50;99.90;;;;;;5020843;28;20171;-67
2023/12/05 11:34:10;;;;;;;6.68;4.13;;;1.50;99.90;;;;;;5034976;28;20053;-67
2023/12/05 11:36:41;;;;;;;5.55;2.95;;;1.50;99.90;;;;;;5037855;28;20120;-67
2023/12/05 11:39:08;;;;;;;4.30;3.42;;;1.40;99.90;;;;;;5040341;28;20045;-67
2023/12/05 11:41:34;;;;;;;4.20;3.15;;;1.40;99.90;;;;;;5026163;28;20048;-67
2023/12/05 11:44:12;;;;;;;5.22;3.92;;;1.40;99.90;;;;;;5037292;28;20489;-67
2023/12/05 11:46:41;;;;;;;5.30;4.53;;;1.50;99.90;;;;;;5041071;28;20030;-67
2023/12/05 11:49:07;;;;;;;6.07;4.47;;;1.40;99.90;;;;;;5022331;28;20485;-67
2023/12/05 11:51:35;;;;;;;5.35;2.97;;;1.50;99.90;;;;;;5042618;28;20060;-66
2023/12/05 11:54:01;;;;;;;7.28;4.15;;;1.40;99.90;;;;;;5036626;28;20053;-67
2023/12/05 11:56:28;;;;;;;5.85;4.03;;;1.40;99.90;;;;;;5043063;28;20476;-67
2023/12/05 11:59:13;;;;;;;5.15;3.20;;;1.40;99.90;;;;;;5021553;28;20465;-67
2023/12/05 12:01:43;;;;;;;4.57;3.08;;;1.40;99.90;;;;;;5038880;28;20117;-68
2023/12/05 12:04:22;;;;;;;6.18;2.60;;;1.40;99.90;;;;;;5037352;28;20041;-68
2023/12/05 12:06:49;;;;;;;7.25;3.55;;;1.40;99.90;;;;;;5021130;28;20083;-68
2023/12/05 12:09:15;;;;;;;8.48;4.38;;;1.40;99.90;;;;;;5041103;28;20414;-68
2023/12/05 12:11:44;;;;;;;5.65;3.45;;;1.40;99.90;;;;;;5040421;28;20040;-68
2023/12/05 12:14:14;;;;;;;8.10;5.20;;;1.40;99.90;;;;;;5042295;28;20040;-68
2023/12/05 12:16:40;;;;;;;5.50;4.40;;;1.40;99.90;;;;;;5025871;28;20124;-69
2023/12/05 12:19:11;;;;;;;6.70;3.47;;;1.40;99.90;;;;;;5022636;28;20079;-69
2023/12/05 12:21:38;;;;;;;5.15;4.05;;;1.40;99.90;;;;;;5022110;28;20038;-69
2023/12/05 12:24:04;;;;;;;6.38;4.30;;;1.40;99.90;;;;;;5040551;28;20041;-69
2023/12/05 12:26:32;;;;;;;9.77;4.78;;;1.40;99.90;;;;;;5025795;28;20102;-70
2023/12/05 12:29:25;;;;;;;4.57;3.47;;;1.40;99.90;;;;;;5041000;28;20491;-69
2023/12/05 12:32:02;;;;;;;6.20;4.57;;;1.30;99.90;;;;;;5011394;28;20053;-69
2023/12/05 12:34:28;;;;;;;6.28;4.03;;;1.40;99.90;;;;;;5025789;28;20573;-68
2023/12/05 12:36:56;;;;;;;6.88;4.05;;;1.30;99.90;;;;;;5020947;28;20034;-69
2023/12/05 12:39:23;;;;;;;5.97;3.83;;;1.30;99.90;;;;;;5021553;28;20536;-69
2023/12/05 12:41:55;;;;;;;3.65;2.72;;;1.30;99.90;;;;;;5025448;28;20113;-69
2023/12/05 12:44:21;;;;;;;8.65;4.85;;;1.30;99.90;;;;;;5030469;28;20036;-68
2023/12/05 12:46:47;;;;;;;7.13;3.80;;;1.40;99.90;;;;;;5040208;28;20037;-68
2023/12/05 12:49:13;;;;;;;3.85;2.80;;;1.30;99.90;;;;;;5012812;28;20061;-68
2023/12/05 12:51:43;;;;;;;6.53;2.67;;;1.40;99.90;;;;;;5039731;28;20073;-69
2023/12/05 12:54:09;;;;;;;9.25;4.88;;;1.40;99.90;;;;;;5026075;28;20049;-69
2023/12/05 12:56:36;;;;;;;5.47;4.18;;;1.30;99.90;;;;;;5025221;28;20398;-68
2023/12/05 12:59:02;;;;;;;7.43;4.88;;;1.30;99.90;;;;;;5020816;28;20056;-68